Time;durP1;ratioP1;P1;durP2;ratioP2;P2;SDS_P1;SDS_P2;PMS_P1;PMS_P2;Temp;Humidity;BMP_temperature;BMP_pressure;BME280_temperature;BME280_humidity;BME280_pressure;Samples;Min_cycle;Max_cycle;Signal;HPM_P1;HPM_P2
2023/10/27 00:02:12;;;;;;;;;;;;;;;11.33;100.00;98362.09;107443;278;105483;-52
2023/10/27 00:04:50;;;;;;;;;;;;;;;11.31;100.00;98363.67;107483;278;114748;-56
2023/10/27 00:07:31;;;;;;;;;;;;;;;11.31;100.00;98359.52;107497;278;96523;-53
2023/10/27 00:10:04;;;;;;;;;;;;;;;11.29;100.00;98355.95;107446;278;98156;-52
2023/10/27 00:12:40;;;;;;;;;;;;;;;11.27;100.00;98353.23;107576;278;121671;-57
2023/10/27 00:15:17;;;;;;;;;;;;;;;11.24;100.00;98346.73;107456;278;105992;-58
2023/10/27 00:17:56;;;;;;;;;;;;;;;11.25;100.00;98348.05;107501;278;114565;-56
2023/10/27 00:20:32;;;;;;;;;;;;;;;11.21;100.00;98343.35;107555;278;97049;-56
2023/10/27 00:23:17;;;;;;;;;;;;;;;11.20;100.00;98340.62;107480;278;98253;-53
2023/10/27 00:25:57;;;;;;;;;;;;;;;11.21;100.00;98331.13;107520;278;121840;-54
2023/10/27 00:28:33;;;;;;;;;;;;;;;11.21;100.00;98331.92;107406;278;104846;-56
2023/10/27 00:31:08;;;;;;;;;;;;;;;11.20;100.00;98327.33;107559;278;113404;-58
2023/10/27 00:33:42;;;;;;;;;;;;;;;11.20;100.00;98333.14;107519;278;94910;-53
2023/10/27 00:36:15;;;;;;;;;;;;;;;11.12;100.00;98330.59;107527;278;97891;-52
2023/10/27 00:38:50;;;;;;;;;;;;;;;11.11;100.00;98332.13;107547;278;120240;-53
2023/10/27 00:41:28;;;;;;;;;;;;;;;11.09;100.00;98333.44;107382;278;107028;-55
2023/10/27 00:44:09;;;;;;;;;;;;;;;11.11;100.00;98339.59;107511;278;114237;-56
2023/10/27 00:46:44;;;;;;;;;;;;;;;11.16;100.00;98342.88;107368;278;97978;-56
2023/10/27 00:49:23;;;;;;;;;;;;;;;11.12;100.00;98342.31;107519;278;96749;-54
2023/10/27 00:52:01;;;;;;;;;;;;;;;11.11;100.00;98345.80;107514;278;122429;-52
2023/10/27 00:54:37;;;;;;;;;;;;;;;11.11;100.00;98346.41;107468;278;104087;-52
2023/10/27 00:57:16;;;;;;;;;;;;;;;11.11;100.00;98342.67;107483;278;112660;-55
2023/10/27 00:59:54;;;;;;;;;;;;;;;11.04;100.00;98341.04;107478;278;96551;-57
2023/10/27 01:02:33;;;;;;;;;;;;;;;11.06;100.00;98340.59;107534;278;98259;-57
2023/10/27 01:05:09;;;;;;;;;;;;;;;11.07;100.00;98339.94;107477;278;121612;-57
2023/10/27 01:07:44;;;;;;;;;;;;;;;11.07;100.00;98337.83;107496;278;106156;-51
2023/10/27 01:10:16;;;;;;;;;;;;;;;11.06;100.00;98337.27;107514;278;113891;-52
2023/10/27 01:12:51;;;;;;;;;;;;;;;11.07;100.00;98332.12;107510;278;96157;-58
2023/10/27 01:15:29;;;;;;;;;;;;;;;11.08;100.00;98334.35;107569;278;94967;-58
2023/10/27 01:18:08;;;;;;;;;;;;;;;11.09;100.00;98329.16;107564;278;122801;-53
2023/10/27 01:20:47;;;;;;;;;;;;;;;11.12;100.00;98326.52;107517;278;104851;-53
2023/10/27 01:23:26;;;;;;;;;;;;;;;11.11;100.00;98317.31;107500;279;114082;-53
2023/10/27 01:26:04;;;;;;;;;;;;;;;11.09;100.00;98317.23;107504;278;96743;-52
2023/10/27 01:28:39;;;;;;;;;;;;;;;11.11;100.00;98321.10;107519;278;97942;-53
2023/10/27 01:31:18;;;;;;;;;;;;;;;11.11;100.00;98325.80;107491;278;121085;-54
2023/10/27 01:33:58;;;;;;;;;;;;;;;11.15;100.00;98325.40;107534;278;105029;-53
2023/10/27 01:36:39;;;;;;;;;;;;;;;11.12;100.00;98324.41;107504;278;113675;-54
2023/10/27 01:39:18;;;;;;;;;;;;;;;11.12;100.00;98328.90;107356;279;96608;-54
2023/10/27 01:41:54;;;;;;;;;;;;;;;11.09;100.00;98324.96;107465;278;97562;-53
2023/10/27 01:44:31;;;;;;;;;;;;;;;11.08;100.00;98319.48;107490;279;121938;-56
2023/10/27 01:47:04;;;;;;;;;;;;;;;11.05;100.00;98322.73;107477;278;105610;-55
2023/10/27 01:49:40;;;;;;;;;;;;;;;11.04;100.00;98319.94;107492;278;113013;-54
2023/10/27 01:52:26;;;;;;;;;;;;;;;11.01;100.00;98319.63;107438;279;97169;-56
2023/10/27 01:55:03;;;;;;;;;;;;;;;10.99;100.00;98313.44;107383;278;99257;-57
2023/10/27 01:57:42;;;;;;;;;;;;;;;10.96;100.00;98310.62;107463;278;120978;-57
2023/10/27 02:00:17;;;;;;;;;;;;;;;10.97;100.00;98309.45;107403;279;105277;-58
2023/10/27 02:02:55;;;;;;;;;;;;;;;10.94;100.00;98301.83;107498;278;113081;-54
2023/10/27 02:05:34;;;;;;;;;;;;;;;10.90;100.00;98304.61;107484;278;96726;-54
2023/10/27 02:08:13;;;;;;;;;;;;;;;10.89;100.00;98302.32;107497;278;97576;-56
2023/10/27 02:10:46;;;;;;;;;;;;;;;10.84;100.00;98296.28;107435;278;122009;-56
2023/10/27 02:13:22;;;;;;;;;;;;;;;10.84;100.00;98297.75;107520;278;104401;-57
2023/10/27 02:16:01;;;;;;;;;;;;;;;10.85;100.00;98295.98;107478;278;113863;-56
2023/10/27 02:18:38;;;;;;;;;;;;;;;10.82;100.00;98294.64;107463;278;96851;-53
2023/10/27 02:21:11;;;;;;;;;;;;;;;10.81;100.00;98294.14;107493;278;97746;-53
2023/10/27 02:23:46;;;;;;;;;;;;;;;10.79;100.00;98296.91;107468;278;121973;-53
2023/10/27 02:26:25;;;;;;;;;;;;;;;10.81;100.00;98296.29;107460;278;105753;-52
2023/10/27 02:29:06;;;;;;;;;;;;;;;10.80;100.00;98295.67;107490;278;114845;-54
2023/10/27 02:31:42;;;;;;;;;;;;;;;10.75;100.00;98296.58;107456;278;95772;-55
2023/10/27 02:34:17;;;;;;;;;;;;;;;10.80;100.00;98299.58;107518;279;95880;-54
2023/10/27 02:36:54;;;;;;;;;;;;;;;10.81;100.00;98299.70;107485;278;122617;-54
2023/10/27 02:39:33;;;;;;;;;;;;;;;10.80;100.00;98293.80;107517;278;104570;-56
2023/10/27 02:42:10;;;;;;;;;;;;;;;10.78;100.00;98300.11;107538;278;114228;-56
2023/10/27 02:44:44;;;;;;;;;;;;;;;10.77;100.00;98296.81;107564;278;96964;-55
2023/10/27 02:47:21;;;;;;;;;;;;;;;10.79;100.00;98295.67;107619;278;97998;-53
2023/10/27 02:49:56;;;;;;;;;;;;;;;10.79;100.00;98295.45;107173;278;466747;-52
2023/10/27 02:52:31;;;;;;;;;;;;;;;10.83;100.00;98291.41;107525;278;105043;-56
2023/10/27 02:55:07;;;;;;;;;;;;;;;10.83;100.00;98292.49;107483;278;113850;-56
2023/10/27 02:57:41;;;;;;;;;;;;;;;10.82;100.00;98292.05;107489;279;95397;-57
2023/10/27 03:00:20;;;;;;;;;;;;;;;10.76;100.00;98289.88;107504;278;97530;-57
2023/10/27 03:03:01;;;;;;;;;;;;;;;10.69;100.00;98285.66;107530;278;121932;-53
2023/10/27 03:05:40;;;;;;;;;;;;;;;10.71;100.00;98286.00;107374;278;103120;-53
2023/10/27 03:08:15;;;;;;;;;;;;;;;10.71;100.00;98284.94;107518;278;114972;-53
2023/10/27 03:10:54;;;;;;;;;;;;;;;10.71;100.00;98284.91;107477;279;96304;-53
2023/10/27 03:13:31;;;;;;;;;;;;;;;10.70;100.00;98285.23;107473;278;97162;-53
2023/10/27 03:16:07;;;;;;;;;;;;;;;10.68;100.00;98284.61;107501;278;120890;-54
2023/10/27 03:18:43;;;;;;;;;;;;;;;10.65;100.00;98279.95;107498;278;104109;-55
2023/10/27 03:21:24;;;;;;;;;;;;;;;10.70;100.00;98279.08;107488;278;113159;-56
2023/10/27 03:24:02;;;;;;;;;;;;;;;10.70;100.00;98277.83;107523;278;96098;-54
2023/10/27 03:26:35;;;;;;;;;;;;;;;10.68;100.00;98278.87;107501;278;96224;-54
2023/10/27 03:29:14;;;;;;;;;;;;;;;10.63;100.00;98279.48;107568;278;121151;-52
2023/10/27 03:31:52;;;;;;;;;;;;;;;10.64;100.00;98274.27;107533;278;105641;-57
2023/10/27 03:34:28;;;;;;;;;;;;;;;10.58;100.00;98264.50;107573;278;113846;-55
2023/10/27 03:37:02;;;;;;;;;;;;;;;10.60;100.00;98257.63;107525;279;95300;-56
2023/10/27 03:39:37;;;;;;;;;;;;;;;10.60;100.00;98254.04;107565;278;97426;-55
2023/10/27 03:42:19;;;;;;;;;;;;;;;10.58;100.00;98247.75;107518;278;121626;-56
2023/10/27 03:44:57;;;;;;;;;;;;;;;10.56;100.00;98243.77;107494;278;104490;-56
2023/10/27 03:47:34;;;;;;;;;;;;;;;10.55;100.00;98244.46;107452;278;114249;-53
2023/10/27 03:50:10;;;;;;;;;;;;;;;10.57;100.00;98240.50;107416;278;96951;-52
2023/10/27 03:52:50;;;;;;;;;;;;;;;10.57;100.00;98242.39;107510;278;97815;-52
2023/10/27 03:55:26;;;;;;;;;;;;;;;10.57;100.00;98242.55;107488;278;121755;-52
2023/10/27 03:58:19;;;;;;;;;;;;;;;10.52;100.00;98247.38;107519;277;104519;-55
2023/10/27 04:00:56;;;;;;;;;;;;;;;10.50;100.00;98245.05;107476;277;114469;-56
2023/10/27 04:03:36;;;;;;;;;;;;;;;10.47;100.00;98246.19;107546;277;97223;-56
2023/10/27 04:06:12;;;;;;;;;;;;;;;10.52;100.00;98247.37;107524;277;98486;-56
2023/10/27 04:08:46;;;;;;;;;;;;;;;10.53;100.00;98250.66;107568;277;122576;-52
2023/10/27 04:11:28;;;;;;;;;;;;;;;10.52;100.00;98255.09;107540;277;106346;-53
2023/10/27 04:14:10;;;;;;;;;;;;;;;10.52;100.00;98260.21;107567;277;114465;-52
2023/10/27 04:16:48;;;;;;;;;;;;;;;10.47;100.00;98262.55;107547;277;95405;-54
2023/10/27 04:19:22;;;;;;;;;;;;;;;10.45;100.00;98269.48;107583;277;96162;-58
2023/10/27 04:22:01;;;;;;;;;;;;;;;10.45;100.00;98269.23;107591;277;121217;-57
2023/10/27 04:24:39;;;;;;;;;;;;;;;10.41;100.00;98269.83;107560;278;106801;-53
2023/10/27 04:27:13;;;;;;;;;;;;;;;10.46;100.00;98267.02;107603;277;113428;-55
2023/10/27 04:29:48;;;;;;;;;;;;;;;10.48;100.00;98276.77;107587;277;96654;-54
2023/10/27 04:32:24;;;;;;;;;;;;;;;10.49;100.00;98280.52;107534;277;96735;-56
2023/10/27 04:35:00;;;;;;;;;;;;;;;10.51;100.00;98277.63;107509;277;121971;-58
2023/10/27 04:37:37;;;;;;;;;;;;;;;10.47;100.00;98273.98;107528;277;105383;-53
2023/10/27 04:40:13;;;;;;;;;;;;;;;10.52;100.00;98270.91;107522;277;114212;-51
2023/10/27 04:42:52;;;;;;;;;;;;;;;10.51;100.00;98271.02;107562;277;97221;-53
2023/10/27 04:45:29;;;;;;;;;;;;;;;10.51;100.00;98274.83;107546;277;97014;-53
2023/10/27 04:48:05;;;;;;;;;;;;;;;10.56;100.00;98274.48;107603;277;121624;-59
2023/10/27 04:50:45;;;;;;;;;;;;;;;10.60;100.00;98270.61;107571;277;106089;-56
2023/10/27 04:53:21;;;;;;;;;;;;;;;10.63;100.00;98279.97;107540;277;114139;-57
2023/10/27 04:55:59;;;;;;;;;;;;;;;10.60;100.00;98274.67;107538;277;95371;-56
2023/10/27 04:58:36;;;;;;;;;;;;;;;10.60;100.00;98273.92;107601;277;98163;-56
2023/10/27 05:01:13;;;;;;;;;;;;;;;10.60;100.00;98274.09;107603;277;122047;-56
2023/10/27 05:03:51;;;;;;;;;;;;;;;10.57;100.00;98270.63;107708;277;105743;-57
2023/10/27 05:06:30;;;;;;;;;;;;;;;10.61;100.00;98276.95;107665;277;114699;-57
2023/10/27 05:09:06;;;;;;;;;;;;;;;10.60;100.00;98280.67;107628;277;97474;-57
2023/10/27 05:11:39;;;;;;;;;;;;;;;10.56;100.00;98281.79;107595;277;97555;-57
2023/10/27 05:14:13;;;;;;;;;;;;;;;10.58;100.00;98280.09;107519;277;124299;-54
2023/10/27 05:16:56;;;;;;;;;;;;;;;10.62;100.00;98286.71;107612;277;105130;-54
2023/10/27 05:19:36;;;;;;;;;;;;;;;10.64;100.00;98287.30;107596;277;114341;-52
2023/10/27 05:22:18;;;;;;;;;;;;;;;10.68;100.00;98290.48;107594;277;97101;-53
2023/10/27 05:24:54;;;;;;;;;;;;;;;10.71;100.00;98291.24;107501;277;96702;-54
2023/10/27 05:27:31;;;;;;;;;;;;;;;10.68;100.00;98294.11;107669;277;120627;-52
2023/10/27 05:30:09;;;;;;;;;;;;;;;10.67;100.00;98293.42;107614;277;105944;-53
2023/10/27 05:32:44;;;;;;;;;;;;;;;10.63;100.00;98299.20;107572;277;114869;-54
2023/10/27 05:35:22;;;;;;;;;;;;;;;10.63;100.00;98301.78;107568;277;96756;-54
2023/10/27 05:37:56;;;;;;;;;;;;;;;10.64;100.00;98305.16;107595;277;97718;-57
2023/10/27 05:40:34;;;;;;;;;;;;;;;10.67;100.00;98305.27;107501;277;121556;-59
2023/10/27 05:43:17;;;;;;;;;;;;;;;10.68;100.00;98306.32;107484;277;105692;-52
2023/10/27 05:45:53;;;;;;;;;;;;;;;10.65;100.00;98303.08;107503;277;113957;-54
2023/10/27 05:48:26;;;;;;;;;;;;;;;10.63;100.00;98308.63;107522;277;98627;-54
2023/10/27 05:50:59;;;;;;;;;;;;;;;10.66;100.00;98312.92;107546;277;96703;-54
2023/10/27 05:53:39;;;;;;;;;;;;;;;10.66;100.00;98311.94;107533;277;121729;-59
2023/10/27 05:56:19;;;;;;;;;;;;;;;10.66;100.00;98310.77;107492;277;105582;-57
2023/10/27 05:58:52;;;;;;;;;;;;;;;10.66;100.00;98312.59;107466;277;114403;-54
2023/10/27 06:01:29;;;;;;;;;;;;;;;10.65;100.00;98309.42;107505;277;96484;-53
2023/10/27 06:04:06;;;;;;;;;;;;;;;10.66;100.00;98314.80;107514;277;96561;-55
2023/10/27 06:06:40;;;;;;;;;;;;;;;10.67;100.00;98319.80;107456;277;121778;-56
2023/10/27 06:09:15;;;;;;;;;;;;;;;10.69;100.00;98323.88;107522;277;104751;-52
2023/10/27 06:11:52;;;;;;;;;;;;;;;10.68;100.00;98325.77;107447;277;116116;-53
2023/10/27 06:14:25;;;;;;;;;;;;;;;10.68;100.00;98327.42;107509;277;96380;-55
2023/10/27 06:17:03;;;;;;;;;;;;;;;10.67;100.00;98332.27;107459;277;97335;-57
2023/10/27 06:19:37;;;;;;;;;;;;;;;10.68;100.00;98334.02;107526;277;122280;-58
2023/10/27 06:22:16;;;;;;;;;;;;;;;10.71;100.00;98334.18;107473;277;104652;-55
2023/10/27 06:24:56;;;;;;;;;;;;;;;10.69;100.00;98334.27;107516;277;114817;-51
2023/10/27 06:27:35;;;;;;;;;;;;;;;10.71;100.00;98340.33;107511;277;96366;-62
2023/10/27 06:30:15;;;;;;;;;;;;;;;10.73;100.00;98346.14;107597;277;98641;-58
2023/10/27 06:32:49;;;;;;;;;;;;;;;10.76;100.00;98344.49;107515;277;123694;-57
2023/10/27 06:35:26;;;;;;;;;;;;;;;10.77;100.00;98341.53;107534;277;104997;-56
2023/10/27 06:38:05;;;;;;;;;;;;;;;10.78;100.00;98342.80;107535;277;114876;-57
2023/10/27 06:40:43;;;;;;;;;;;;;;;10.84;100.00;98332.81;107485;277;96835;-57
2023/10/27 06:43:21;;;;;;;;;;;;;;;10.92;100.00;98333.22;107524;277;96337;-58
2023/10/27 06:46:00;;;;;;;;;;;;;;;10.97;100.00;98338.67;107490;277;122326;-57
2023/10/27 06:48:35;;;;;;;;;;;;;;;11.01;100.00;98342.65;107540;277;104519;-52
2023/10/27 06:51:12;;;;;;;;;;;;;;;11.06;100.00;98344.46;107509;277;114860;-52
2023/10/27 06:53:54;;;;;;;;;;;;;;;11.07;100.00;98347.03;107478;277;98346;-52
2023/10/27 06:56:30;;;;;;;;;;;;;;;11.10;100.00;98347.35;107536;278;99307;-53
2023/10/27 06:59:03;;;;;;;;;;;;;;;11.11;100.00;98341.87;107525;277;122080;-54
2023/10/27 07:01:38;;;;;;;;;;;;;;;11.18;100.00;98336.85;107450;277;104579;-54
2023/10/27 07:04:22;;;;;;;;;;;;;;;11.23;100.00;98333.70;107472;277;112809;-52
2023/10/27 07:07:00;;;;;;;;;;;;;;;11.33;100.00;98333.05;107464;277;96363;-51
2023/10/27 07:09:38;;;;;;;;;;;;;;;11.40;100.00;98329.39;107496;277;96593;-58
2023/10/27 07:12:13;;;;;;;;;;;;;;;11.46;100.00;98324.95;107491;277;121085;-57
2023/10/27 07:14:46;;;;;;;;;;;;;;;11.52;100.00;98321.80;107513;277;104512;-54
2023/10/27 07:17:20;;;;;;;;;;;;;;;11.56;100.00;98324.20;107475;277;114518;-54
2023/10/27 07:19:58;;;;;;;;;;;;;;;11.61;100.00;98316.96;107487;277;95532;-54
2023/10/27 07:22:35;;;;;;;;;;;;;;;11.67;100.00;98317.73;107469;277;97759;-56
2023/10/27 07:25:10;;;;;;;;;;;;;;;11.77;100.00;98319.30;107453;277;121289;-56
2023/10/27 07:27:47;;;;;;;;;;;;;;;11.82;100.00;98317.76;107497;277;104996;-57
2023/10/27 07:30:23;;;;;;;;;;;;;;;11.91;100.00;98314.31;107467;277;114896;-57
2023/10/27 07:32:59;;;;;;;;;;;;;;;11.92;100.00;98317.15;107500;277;96254;-59
2023/10/27 07:35:36;;;;;;;;;;;;;;;11.95;100.00;98312.11;107481;277;97644;-58
2023/10/27 07:38:15;;;;;;;;;;;;;;;11.97;100.00;98314.89;107440;277;122294;-53
2023/10/27 07:40:51;;;;;;;;;;;;;;;11.97;100.00;98309.89;107471;277;104354;-54
2023/10/27 07:43:29;;;;;;;;;;;;;;;12.00;100.00;98304.93;107504;277;114086;-52
2023/10/27 07:46:02;;;;;;;;;;;;;;;12.05;100.00;98306.73;107496;277;96344;-52
2023/10/27 07:48:44;;;;;;;;;;;;;;;12.05;100.00;98307.64;107554;277;97501;-56
2023/10/27 07:51:23;;;;;;;;;;;;;;;12.06;100.00;98311.35;107526;277;121214;-56
2023/10/27 07:54:00;;;;;;;;;;;;;;;12.07;100.00;98316.45;107531;277;104989;-54
2023/10/27 07:56:38;;;;;;;;;;;;;;;12.01;100.00;98320.90;107528;277;116044;-54
2023/10/27 07:59:24;;;;;;;;;;;;;;;12.04;100.00;98322.83;107511;277;94785;-55
2023/10/27 08:02:07;;;;;;;;;;;;;;;12.07;100.00;98323.96;107572;277;96877;-54
2023/10/27 08:04:49;;;;;;;;;;;;;;;12.08;100.00;98323.05;107462;277;121588;-52
2023/10/27 08:07:27;;;;;;;;;;;;;;;12.12;100.00;98322.08;107433;277;107693;-57
2023/10/27 08:10:02;;;;;;;;;;;;;;;12.15;100.00;98323.42;107535;277;113388;-58
2023/10/27 08:12:39;;;;;;;;;;;;;;;12.22;100.00;98328.18;107456;277;96235;-54
2023/10/27 08:15:11;;;;;;;;;;;;;;;12.22;100.00;98330.52;107517;277;97229;-54
2023/10/27 08:17:45;;;;;;;;;;;;;;;12.22;100.00;98332.28;107568;277;121181;-54
2023/10/27 08:20:18;;;;;;;;;;;;;;;12.22;100.00;98331.15;107547;277;105126;-54
2023/10/27 08:22:55;;;;;;;;;;;;;;;12.26;100.00;98333.48;107466;277;113965;-56
2023/10/27 08:25:30;;;;;;;;;;;;;;;12.32;100.00;98333.89;107552;277;96951;-56
2023/10/27 08:28:08;;;;;;;;;;;;;;;12.38;100.00;98335.70;107484;278;95751;-55
2023/10/27 08:30:49;;;;;;;;;;;;;;;12.40;100.00;98337.18;107534;277;121784;-54
2023/10/27 08:33:28;;;;;;;;;;;;;;;12.42;100.00;98338.41;107523;277;105334;-57
2023/10/27 08:36:06;;;;;;;;;;;;;;;12.40;100.00;98342.66;107510;277;114895;-55
2023/10/27 08:38:41;;;;;;;;;;;;;;;12.40;100.00;98345.69;107500;277;92855;-55
2023/10/27 08:41:14;;;;;;;;;;;;;;;12.38;100.00;98347.58;107567;277;96857;-56
2023/10/27 08:43:52;;;;;;;;;;;;;;;12.42;100.00;98342.79;107544;277;122849;-56
2023/10/27 08:46:32;;;;;;;;;;;;;;;12.40;99.96;98340.82;107544;277;105429;-57
2023/10/27 08:49:10;;;;;;;;;;;;;;;12.40;100.00;98337.19;107578;277;112889;-52
2023/10/27 08:51:50;;;;;;;;;;;;;;;12.40;100.00;98341.26;107441;277;94363;-53
2023/10/27 08:54:30;;;;;;;;;;;;;;;12.39;100.00;98337.67;107601;277;96192;-56
2023/10/27 08:57:06;;;;;;;;;;;;;;;12.35;100.00;98337.73;107503;277;121515;-57
2023/10/27 08:59:43;;;;;;;;;;;;;;;12.38;100.00;98333.91;107433;277;105726;-56
2023/10/27 09:02:31;;;;;;;;;;;;;;;12.42;99.99;98334.88;107537;277;114728;-53
2023/10/27 09:05:08;;;;;;;;;;;;;;;12.46;100.00;98334.08;107539;277;96853;-53
2023/10/27 09:07:42;;;;;;;;;;;;;;;12.51;100.00;98337.93;107624;277;96943;-53
2023/10/27 09:10:17;;;;;;;;;;;;;;;12.50;100.00;98337.04;107614;277;122057;-52
2023/10/27 09:12:59;;;;;;;;;;;;;;;12.49;100.00;98333.57;107620;277;105221;-54
2023/10/27 09:15:45;;;;;;;;;;;;;;;12.47;100.00;98335.82;107558;277;114830;-55
2023/10/27 09:18:37;;;;;;;;;;;;;;;12.47;100.00;98342.05;107587;277;95271;-54
2023/10/27 09:21:13;;;;;;;;;;;;;;;12.50;100.00;98345.92;107618;277;96252;-53
2023/10/27 09:23:55;;;;;;;;;;;;;;;12.55;99.99;98341.34;107585;277;121450;-55
2023/10/27 09:26:34;;;;;;;;;;;;;;;12.52;99.97;98338.80;107600;277;105265;-55
2023/10/27 09:29:13;;;;;;;;;;;;;;;12.49;99.95;98336.55;107703;277;114558;-58
2023/10/27 09:31:50;;;;;;;;;;;;;;;12.50;99.97;98330.38;107720;277;96755;-58
2023/10/27 09:34:26;;;;;;;;;;;;;;;12.51;99.66;98328.38;107634;277;96800;-57
2023/10/27 09:37:04;;;;;;;;;;;;;;;12.52;99.60;98328.52;107568;277;120755;-57
2023/10/27 09:39:42;;;;;;;;;;;;;;;12.48;99.32;98325.92;107498;277;104004;-52
2023/10/27 09:42:16;;;;;;;;;;;;;;;12.44;99.22;98325.82;107505;277;114427;-55
2023/10/27 09:45:01;;;;;;;;;;;;;;;12.48;99.56;98324.45;107486;277;94461;-56
2023/10/27 09:47:43;;;;;;;;;;;;;;;12.48;99.58;98320.55;107548;277;97262;-55
2023/10/27 09:50:19;;;;;;;;;;;;;;;12.49;99.61;98322.30;107480;277;121668;-56
2023/10/27 09:53:00;;;;;;;;;;;;;;;12.52;99.56;98319.48;107467;277;104238;-51
2023/10/27 09:55:39;;;;;;;;;;;;;;;12.56;99.58;98316.48;107421;277;114573;-52
2023/10/27 09:58:15;;;;;;;;;;;;;;;12.64;99.61;98312.55;107441;277;96315;-54
2023/10/27 10:00:52;;;;;;;;;;;;;;;12.75;99.48;98306.95;107500;277;98381;-56
2023/10/27 10:03:30;;;;;;;;;;;;;;;12.87;99.31;98306.22;107503;277;122186;-57
2023/10/27 10:06:23;;;;;;;;;;;;;;;12.91;99.32;98303.81;107508;277;103335;-57
2023/10/27 10:09:14;;;;;;;;;;;;;;;12.98;99.00;98303.79;107508;277;114981;-57
2023/10/27 10:12:00;;;;;;;;;;;;;;;13.10;98.63;98304.09;107438;277;96197;-56
2023/10/27 10:14:51;;;;;;;;;;;;;;;13.20;98.77;98303.75;107531;277;96908;-52
2023/10/27 10:17:45;;;;;;;;;;;;;;;13.29;97.95;98300.58;107455;277;122469;-54
2023/10/27 10:20:41;;;;;;;;;;;;;;;13.28;97.99;98296.19;107480;277;105867;-54
2023/10/27 10:23:18;;;;;;;;;;;;;;;13.27;97.32;98288.21;107509;277;113160;-59
2023/10/27 10:25:55;;;;;;;;;;;;;;;13.29;96.86;98282.85;107512;277;92691;-58
2023/10/27 10:28:34;;;;;;;;;;;;;;;13.31;97.10;98285.30;107496;277;98688;-58
2023/10/27 10:31:27;;;;;;;;;;;;;;;13.24;96.27;98286.60;107440;277;122453;-61
2023/10/27 10:34:18;;;;;;;;;;;;;;;13.22;96.27;98283.88;107461;277;106082;-57
2023/10/27 10:37:17;;;;;;;;;;;;;;;13.29;96.41;98281.66;107443;277;113991;-57
2023/10/27 10:40:22;;;;;;;;;;;;;;;13.41;96.91;98269.34;107496;277;96281;-56
2023/10/27 10:43:20;;;;;;;;;;;;;;;13.56;96.64;98261.32;107330;277;97295;-54
2023/10/27 10:45:56;;;;;;;;;;;;;;;13.69;96.58;98257.17;107508;277;121994;-54
2023/10/27 10:48:30;;;;;;;;;;;;;;;13.78;95.85;98250.82;107517;277;104851;-57
2023/10/27 10:51:14;;;;;;;;;;;;;;;13.88;95.71;98249.04;107111;277;505490;-57
2023/10/27 10:53:59;;;;;;;;;;;;;;;13.94;95.78;98251.19;107557;277;94270;-52
2023/10/27 10:56:38;;;;;;;;;;;;;;;13.89;95.20;98252.56;107506;277;97209;-52
2023/10/27 10:59:21;;;;;;;;;;;;;;;13.80;94.77;98261.05;107562;277;120480;-56
2023/10/27 11:02:04;;;;;;;;;;;;;;;13.76;94.67;98264.33;107560;277;104222;-56
2023/10/27 11:04:40;;;;;;;;;;;;;;;13.62;94.42;98269.55;107520;277;112472;-53
2023/10/27 11:07:16;;;;;;;;;;;;;;;13.49;94.34;98273.14;107569;277;95524;-54
2023/10/27 11:09:55;;;;;;;;;;;;;;;13.34;94.31;98272.26;107539;277;97349;-56
2023/10/27 11:12:29;;;;;;;;;;;;;;;13.20;94.15;98269.80;107541;277;120759;-57
2023/10/27 11:15:06;;;;;;;;;;;;;;;13.10;94.10;98270.41;107504;277;105970;-56
2023/10/27 11:17:56;;;;;;;;;;;;;;;13.01;93.77;98268.10;107509;277;114695;-52
2023/10/27 11:20:43;;;;;;;;;;;;;;;12.94;93.86;98263.32;107469;277;95000;-53
2023/10/27 11:23:19;;;;;;;;;;;;;;;12.95;93.95;98258.98;107526;277;99102;-55
2023/10/27 11:26:04;;;;;;;;;;;;;;;12.95;93.79;98255.83;107463;277;122280;-56
2023/10/27 11:28:42;;;;;;;;;;;;;;;12.95;93.85;98255.07;107547;277;106197;-52
2023/10/27 11:31:27;;;;;;;;;;;;;;;12.93;94.03;98251.91;107530;277;114300;-53
2023/10/27 11:34:01;;;;;;;;;;;;;;;12.90;93.65;98246.36;107510;277;93760;-54
2023/10/27 11:36:40;;;;;;;;;;;;;;;12.83;93.40;98243.42;107516;277;96250;-53
2023/10/27 11:39:22;;;;;;;;;;;;;;;12.80;93.47;98245.27;107616;277;122323;-52
2023/10/27 11:42:02;;;;;;;;;;;;;;;12.80;93.80;98240.67;107504;277;105521;-53
2023/10/27 11:44:44;;;;;;;;;;;;;;;12.82;93.35;98242.44;107475;277;112523;-57
2023/10/27 11:47:18;;;;;;;;;;;;;;;12.80;93.29;98244.69;107586;277;95544;-53
2023/10/27 11:49:50;;;;;;;;;;;;;;;12.78;92.71;98247.10;107557;277;95359;-53
2023/10/27 11:52:32;;;;;;;;;;;;;;;12.81;93.05;98247.02;107517;277;121549;-57
2023/10/27 11:55:10;;;;;;;;;;;;;;;12.94;92.98;98244.02;107529;277;104455;-57
2023/10/27 11:57:51;;;;;;;;;;;;;;;12.98;93.26;98236.52;107509;278;115014;-58
2023/10/27 12:00:27;;;;;;;;;;;;;;;12.99;93.82;98235.22;107483;278;95814;-57
2023/10/27 12:03:01;;;;;;;;;;;;;;;13.05;93.63;98231.16;107497;278;98255;-56
2023/10/27 12:05:36;;;;;;;;;;;;;;;13.04;93.39;98226.92;107477;278;121106;-56
2023/10/27 12:08:12;;;;;;;;;;;;;;;13.05;93.25;98225.14;107540;278;104531;-53
2023/10/27 12:10:45;;;;;;;;;;;;;;;13.06;93.13;98224.28;107372;278;117171;-54
2023/10/27 12:13:21;;;;;;;;;;;;;;;13.05;92.71;98221.35;107492;278;93853;-55
2023/10/27 12:16:00;;;;;;;;;;;;;;;13.00;92.75;98215.51;107464;278;97905;-54
2023/10/27 12:18:36;;;;;;;;;;;;;;;12.99;93.11;98212.67;107518;278;121977;-57
2023/10/27 12:21:11;;;;;;;;;;;;;;;12.98;92.78;98209.25;107463;278;104360;-57
2023/10/27 12:23:43;;;;;;;;;;;;;;;12.94;92.61;98212.46;107480;278;114023;-55
2023/10/27 12:26:20;;;;;;;;;;;;;;;12.90;92.43;98207.73;107498;278;94869;-53
2023/10/27 12:28:52;;;;;;;;;;;;;;;12.81;92.62;98203.95;107504;278;97209;-55
2023/10/27 12:31:24;;;;;;;;;;;;;;;12.80;92.75;98208.11;107451;278;121010;-55
2023/10/27 12:34:04;;;;;;;;;;;;;;;12.76;92.39;98195.72;107510;278;105810;-52
2023/10/27 12:36:36;;;;;;;;;;;;;;;12.74;92.81;98193.70;107425;278;114389;-52
2023/10/27 12:39:15;;;;;;;;;;;;;;;12.75;92.80;98188.61;107454;278;94196;-57
2023/10/27 12:41:51;;;;;;;;;;;;;;;12.76;92.82;98187.31;107481;278;97830;-58
2023/10/27 12:44:26;;;;;;;;;;;;;;;12.75;92.73;98186.71;107511;278;121200;-56
2023/10/27 12:47:00;;;;;;;;;;;;;;;12.70;92.78;98182.01;107454;278;106326;-54
2023/10/27 12:49:38;;;;;;;;;;;;;;;12.64;92.47;98183.90;107465;278;113338;-57
2023/10/27 12:52:15;;;;;;;;;;;;;;;12.63;92.32;98187.04;107441;278;96867;-58
2023/10/27 12:54:48;;;;;;;;;;;;;;;12.63;92.21;98187.02;107503;278;96080;-55
2023/10/27 12:57:20;;;;;;;;;;;;;;;12.61;92.16;98187.13;107555;277;122717;-56
2023/10/27 12:59:55;;;;;;;;;;;;;;;12.59;92.21;98186.45;107550;277;105522;-57
2023/10/27 13:02:32;;;;;;;;;;;;;;;12.61;92.34;98185.94;107578;277;113298;-54
2023/10/27 13:05:07;;;;;;;;;;;;;;;12.64;92.81;98181.08;107531;277;94966;-54
2023/10/27 13:07:50;;;;;;;;;;;;;;;12.65;92.65;98184.11;107619;277;97597;-54
2023/10/27 13:10:28;;;;;;;;;;;;;;;12.67;92.72;98180.13;107565;277;122799;-53
2023/10/27 13:13:05;;;;;;;;;;;;;;;12.66;92.72;98184.58;107668;277;106552;-54
2023/10/27 13:15:40;;;;;;;;;;;;;;;12.67;92.76;98183.92;107514;277;114221;-55
2023/10/27 13:18:18;;;;;;;;;;;;;;;12.68;92.26;98181.02;107586;277;94583;-54
2023/10/27 13:20:51;;;;;;;;;;;;;;;12.69;92.59;98180.54;107627;277;97165;-54
2023/10/27 13:23:24;;;;;;;;;;;;;;;12.73;91.78;98178.40;107587;277;120679;-55
2023/10/27 13:26:09;;;;;;;;;;;;;;;12.67;91.58;98177.16;107649;277;105305;-56
2023/10/27 13:28:51;;;;;;;;;;;;;;;12.66;91.87;98176.98;107450;277;114481;-53